createdAt,value
2023-01-18T00:01:40.469Z,5.97
2023-01-18T00:05:22.867Z,5.35
2023-01-18T00:09:04.716Z,5.55
2023-01-18T00:12:46.608Z,4.38
2023-01-18T00:16:30.365Z,5.25
2023-01-18T00:20:12.278Z,6.03
2023-01-18T00:23:56.034Z,7.25
2023-01-18T00:27:38.501Z,6.75
2023-01-18T00:31:21.403Z,6.13
2023-01-18T00:35:07.304Z,6.45
2023-01-18T00:38:54.055Z,6.80
2023-01-18T00:42:55.019Z,7.60
2023-01-18T00:46:36.993Z,7.85
2023-01-18T00:50:20.840Z,7.53
2023-01-18T00:54:03.107Z,7.80
2023-01-18T00:57:44.857Z,7.85
2023-01-18T01:01:26.699Z,7.32
2023-01-18T01:05:42.070Z,7.45
2023-01-18T01:09:29.614Z,6.50
2023-01-18T01:17:30.583Z,6.60
2023-01-18T01:21:31.064Z,6.43
2023-01-18T01:25:31.685Z,7.15
2023-01-18T01:29:13.493Z,6.70
2023-01-18T01:32:55.673Z,6.97
2023-01-18T01:36:37.572Z,6.38
2023-01-18T01:40:19.442Z,6.65
2023-01-18T01:44:21.119Z,7.53
2023-01-18T01:48:03.231Z,7.50
2023-01-18T01:52:11.656Z,6.97
2023-01-18T01:55:53.480Z,6.88
2023-01-18T01:59:38.715Z,6.68
2023-01-18T02:03:23.694Z,7.13
2023-01-18T02:07:06.383Z,7.45
2023-01-18T02:10:52.034Z,6.32
2023-01-18T02:14:33.835Z,6.80
2023-01-18T02:18:32.455Z,6.47
2023-01-18T02:22:26.540Z,6.90
2023-01-18T02:26:42.048Z,6.70
2023-01-18T02:30:34.230Z,6.85
2023-01-18T02:34:33.295Z,6.35
2023-01-18T02:38:25.105Z,7.03
2023-01-18T02:42:37.346Z,5.38
2023-01-18T02:46:34.013Z,6.25
2023-01-18T02:50:27.547Z,6.53
2023-01-18T02:54:11.875Z,6.32
2023-01-18T02:58:01.116Z,5.35
2023-01-18T03:02:06.785Z,5.65
2023-01-18T03:05:51.258Z,5.50
2023-01-18T03:09:33.052Z,4.72
2023-01-18T03:13:30.595Z,4.70
2023-01-18T03:17:23.522Z,5.05
2023-01-18T03:21:08.378Z,5.18
2023-01-18T03:24:51.463Z,5.07
2023-01-18T03:28:58.060Z,5.20
2023-01-18T03:32:59.728Z,4.70
2023-01-18T03:36:47.831Z,5.43
2023-01-18T03:40:31.055Z,4.30
2023-01-18T03:44:25.818Z,5.03
2023-01-18T03:48:09.226Z,4.78
2023-01-18T03:52:15.555Z,5.00
2023-01-18T03:56:04.861Z,4.50
2023-01-18T03:59:47.315Z,4.60
2023-01-18T04:03:29.086Z,4.82
2023-01-18T04:07:10.847Z,4.38
2023-01-18T04:10:52.601Z,4.63
2023-01-18T04:14:34.384Z,5.57
2023-01-18T04:18:16.239Z,4.70
2023-01-18T04:21:57.985Z,4.07
2023-01-18T04:25:40.898Z,4.50
2023-01-18T04:29:22.783Z,5.05
2023-01-18T04:33:04.519Z,4.30
2023-01-18T04:36:46.340Z,3.50
2023-01-18T04:40:28.083Z,3.95
2023-01-18T04:44:09.957Z,3.90
2023-01-18T04:47:51.718Z,4.72
2023-01-18T04:51:33.544Z,4.28
2023-01-18T04:55:15.621Z,4.10
2023-01-18T04:58:57.472Z,4.50
2023-01-18T05:02:39.606Z,4.32
2023-01-18T05:06:22.199Z,3.45
2023-01-18T05:10:04.458Z,4.13
2023-01-18T05:13:47.299Z,3.90
2023-01-18T05:17:30.528Z,2.90
2023-01-18T05:21:12.847Z,3.15
2023-01-18T05:24:54.984Z,3.95
2023-01-18T05:28:36.758Z,2.25
2023-01-18T05:32:19.009Z,3.30
2023-01-18T05:36:00.794Z,3.25
2023-01-18T05:39:42.603Z,3.13
2023-01-18T05:43:27.019Z,3.10
2023-01-18T05:47:11.006Z,2.05
2023-01-18T05:50:53.035Z,3.10
2023-01-18T05:54:34.972Z,2.75
2023-01-18T05:58:16.928Z,2.78
2023-01-18T06:01:58.735Z,2.53
2023-01-18T06:05:40.700Z,2.50
2023-01-18T06:09:22.475Z,3.17
2023-01-18T06:13:05.285Z,3.33
2023-01-18T06:16:47.122Z,3.53
2023-01-18T06:20:30.503Z,3.08
2023-01-18T06:24:13.499Z,3.05
2023-01-18T06:27:55.417Z,3.05
2023-01-18T06:31:37.322Z,3.60
2023-01-18T06:35:20.391Z,3.60
2023-01-18T06:39:02.151Z,2.90
2023-01-18T06:42:47.624Z,3.05
2023-01-18T06:46:29.615Z,3.15
2023-01-18T06:50:12.133Z,2.58
2023-01-18T06:53:54.022Z,3.10
2023-01-18T06:57:35.926Z,2.88
2023-01-18T07:01:17.790Z,3.47
2023-01-18T07:04:59.648Z,3.70
2023-01-18T07:08:42.163Z,2.85
2023-01-18T07:12:23.997Z,2.88
2023-01-18T07:16:07.102Z,2.60
2023-01-18T07:19:48.864Z,3.00
2023-01-18T07:23:30.840Z,3.63
2023-01-18T07:27:12.682Z,3.85
2023-01-18T07:30:54.444Z,3.13
2023-01-18T07:34:36.224Z,4.07
2023-01-18T07:38:18.612Z,3.97
2023-01-18T07:42:01.553Z,2.95
2023-01-18T07:45:44.283Z,2.95
2023-01-18T07:49:26.013Z,2.58
2023-01-18T07:53:09.249Z,3.55
2023-01-18T07:56:51.443Z,3.42
2023-01-18T08:00:34.748Z,3.25
2023-01-18T08:04:16.502Z,3.10
2023-01-18T08:07:58.246Z,2.95
2023-01-18T08:11:40.107Z,4.55
2023-01-18T08:15:21.862Z,3.63
2023-01-18T08:19:03.634Z,3.22
2023-01-18T08:22:45.356Z,4.07
2023-01-18T08:26:27.211Z,3.72
2023-01-18T08:30:09.738Z,3.45
2023-01-18T08:33:52.893Z,4.47
2023-01-18T08:37:34.704Z,2.95
2023-01-18T08:41:16.510Z,3.13
2023-01-18T08:44:58.281Z,3.47
2023-01-18T08:48:40.044Z,2.80
2023-01-18T08:52:21.891Z,3.17
2023-01-18T08:56:07.489Z,2.70
2023-01-18T08:59:49.293Z,2.85
2023-01-18T09:03:31.205Z,2.92
2023-01-18T09:07:12.991Z,3.20
2023-01-18T09:10:55.033Z,2.50
2023-01-18T09:14:36.937Z,1.70
2023-01-18T09:18:18.681Z,2.47
2023-01-18T09:22:00.495Z,1.17
2023-01-18T09:25:42.328Z,1.52
2023-01-18T09:29:24.094Z,1.60
2023-01-18T09:33:05.867Z,1.58
2023-01-18T09:36:51.365Z,1.60
2023-01-18T09:40:53.163Z,1.30
2023-01-18T09:44:38.864Z,1.45
2023-01-18T09:48:29.601Z,2.40
2023-01-18T09:52:36.421Z,2.05
2023-01-18T09:56:23.192Z,1.38
2023-01-18T10:00:26.062Z,1.77
2023-01-18T10:04:32.978Z,1.17
2023-01-18T10:08:24.614Z,2.15
2023-01-18T10:12:21.287Z,1.75
2023-01-18T10:16:03.573Z,2.00
2023-01-18T10:19:45.417Z,2.78
2023-01-18T10:23:59.792Z,2.63
2023-01-18T10:27:59.017Z,1.60
2023-01-18T10:32:09.537Z,1.60
2023-01-18T10:35:58.136Z,1.67
2023-01-18T10:39:45.794Z,1.83
2023-01-18T10:43:30.205Z,1.77
2023-01-18T10:47:17.672Z,2.65
2023-01-18T10:51:06.053Z,1.63
2023-01-18T10:54:58.145Z,1.80
2023-01-18T10:58:58.814Z,1.60
2023-01-18T11:02:44.850Z,1.38
2023-01-18T11:06:26.915Z,1.42
2023-01-18T11:10:24.812Z,1.10
2023-01-18T11:14:24.680Z,1.40
2023-01-18T11:18:09.909Z,1.00
2023-01-18T11:21:52.838Z,0.90
2023-01-18T11:25:46.825Z,1.00
2023-01-18T11:29:35.418Z,0.75
2023-01-18T11:33:20.258Z,0.95
2023-01-18T11:37:03.982Z,0.75
2023-01-18T11:40:45.861Z,0.77
2023-01-18T11:44:34.895Z,0.60
2023-01-18T11:48:36.942Z,0.50
2023-01-18T11:52:49.101Z,0.60
2023-01-18T11:56:42.494Z,1.15
2023-01-18T12:00:28.275Z,1.17
2023-01-18T12:04:17.761Z,0.80
2023-01-18T12:08:40.287Z,0.68
2023-01-18T12:12:46.503Z,0.60
2023-01-18T12:16:41.523Z,0.65
2023-01-18T12:20:29.025Z,0.95
2023-01-18T12:24:16.580Z,1.00
2023-01-18T12:28:21.632Z,1.05
2023-01-18T12:32:26.365Z,0.68
2023-01-18T12:36:26.064Z,0.65
2023-01-18T12:40:42.609Z,0.47
2023-01-18T12:48:35.997Z,0.70
2023-01-18T12:52:21.575Z,1.40
2023-01-18T12:56:20.002Z,0.50
2023-01-18T13:00:09.310Z,0.50
2023-01-18T13:03:57.694Z,0.90
2023-01-18T13:07:57.189Z,0.70
2023-01-18T13:11:43.008Z,0.85
2023-01-18T13:15:43.149Z,1.30
2023-01-18T13:19:42.930Z,1.00
2023-01-18T13:23:45.526Z,6.03
2023-01-18T13:27:27.361Z,1.17
2023-01-18T13:31:09.245Z,2.40
2023-01-18T13:35:18.683Z,1.88
2023-01-18T13:39:11.364Z,1.15
2023-01-18T13:42:53.478Z,3.00
2023-01-18T13:46:39.295Z,1.70
2023-01-18T13:50:39.399Z,5.10
2023-01-18T13:54:29.984Z,0.73
2023-01-18T13:58:28.647Z,0.65
2023-01-18T14:02:42.315Z,0.80
2023-01-18T14:06:35.900Z,0.68
2023-01-18T14:10:26.371Z,0.57
2023-01-18T14:14:16.027Z,0.75
2023-01-18T14:17:59.380Z,0.60
2023-01-18T14:22:03.099Z,0.68
2023-01-18T14:26:00.382Z,0.80
2023-01-18T14:29:55.238Z,1.65
2023-01-18T14:33:39.711Z,0.98
2023-01-18T14:37:34.169Z,0.57
2023-01-18T14:41:18.011Z,0.50
2023-01-18T14:45:01.296Z,0.75
2023-01-18T14:48:52.056Z,0.80
2023-01-18T14:52:34.636Z,1.10
2023-01-18T14:56:24.230Z,0.77
2023-01-18T15:00:17.225Z,0.77
2023-01-18T15:04:04.931Z,0.70
2023-01-18T15:07:55.199Z,1.50
2023-01-18T15:11:39.507Z,0.70
2023-01-18T15:15:31.929Z,0.68
2023-01-18T15:19:20.706Z,0.70
2023-01-18T15:23:03.608Z,1.27
2023-01-18T15:26:53.022Z,1.17
2023-01-18T15:30:34.814Z,1.52
2023-01-18T15:34:26.979Z,2.15
2023-01-18T15:38:10.989Z,1.83
2023-01-18T15:41:55.021Z,1.65
2023-01-18T15:45:39.492Z,1.60
2023-01-18T15:49:21.386Z,1.35
2023-01-18T15:53:14.131Z,1.70
2023-01-18T15:57:11.954Z,2.30
2023-01-18T16:00:57.502Z,2.60
2023-01-18T16:04:40.615Z,2.22
2023-01-18T16:08:23.001Z,1.90
2023-01-18T16:12:07.732Z,2.42
2023-01-18T16:16:07.500Z,2.20
2023-01-18T16:19:57.714Z,2.40
2023-01-18T16:23:44.651Z,2.28
2023-01-18T16:27:27.932Z,3.17
2023-01-18T16:31:09.786Z,2.97
2023-01-18T16:34:58.358Z,3.22
2023-01-18T16:38:41.070Z,2.78
2023-01-18T16:42:29.616Z,2.90
2023-01-18T16:46:19.552Z,3.20
2023-01-18T16:50:01.327Z,2.25
2023-01-18T16:53:43.209Z,2.72
2023-01-18T16:57:25.041Z,2.88
2023-01-18T17:01:16.524Z,2.33
2023-01-18T17:04:58.363Z,2.85
2023-01-18T17:08:40.127Z,2.45
2023-01-18T17:12:21.909Z,3.58
2023-01-18T17:16:03.804Z,2.40
2023-01-18T17:19:45.550Z,2.42
2023-01-18T17:23:27.368Z,2.20
2023-01-18T17:27:12.221Z,3.05
2023-01-18T17:30:56.916Z,2.90
2023-01-18T17:34:38.747Z,2.13
2023-01-18T17:38:28.124Z,2.03
2023-01-18T17:42:14.237Z,2.58
2023-01-18T17:46:01.997Z,2.53
2023-01-18T17:49:43.998Z,1.67
2023-01-18T17:53:26.038Z,1.67
2023-01-18T17:57:08.938Z,2.30
2023-01-18T18:00:50.858Z,2.42
2023-01-18T18:04:32.660Z,2.30
2023-01-18T18:08:14.492Z,2.20
2023-01-18T18:11:57.312Z,2.63
2023-01-18T18:15:44.938Z,2.67
2023-01-18T18:19:26.977Z,2.55
2023-01-18T18:23:10.202Z,2.70
2023-01-18T18:26:52.567Z,2.85
2023-01-18T18:30:34.388Z,3.42
2023-01-18T18:34:16.256Z,4.85
2023-01-18T18:37:58.158Z,5.82
2023-01-18T18:41:39.962Z,5.63
2023-01-18T18:45:21.757Z,5.75
2023-01-18T18:49:03.550Z,4.43
2023-01-18T18:52:45.372Z,4.88
2023-01-18T18:56:27.814Z,4.75
2023-01-18T19:00:10.443Z,2.97
2023-01-18T19:03:53.316Z,2.80
2023-01-18T19:07:35.643Z,2.70
2023-01-18T19:11:17.845Z,3.53
2023-01-18T19:14:59.652Z,2.42
2023-01-18T19:18:41.453Z,2.58
2023-01-18T19:22:23.329Z,2.60
2023-01-18T19:26:05.392Z,2.85
2023-01-18T19:29:47.198Z,4.72
2023-01-18T19:33:29.006Z,6.97
2023-01-18T19:37:12.528Z,6.53
2023-01-18T19:40:54.423Z,7.15
2023-01-18T19:44:36.176Z,5.45
2023-01-18T19:48:17.970Z,5.43
2023-01-18T19:51:59.723Z,5.03
2023-01-18T19:55:41.474Z,5.47
2023-01-18T19:59:23.229Z,5.03
2023-01-18T20:03:05.249Z,4.00
2023-01-18T20:06:47.136Z,5.75
2023-01-18T20:10:28.972Z,4.35
2023-01-18T20:14:11.768Z,3.15
2023-01-18T20:17:53.611Z,3.10
2023-01-18T20:21:35.383Z,2.55
2023-01-18T20:25:17.188Z,3.83
2023-01-18T20:28:59.517Z,3.70
2023-01-18T20:32:41.254Z,3.45
2023-01-18T20:36:23.039Z,4.03
2023-01-18T20:40:05.199Z,3.17
2023-01-18T20:43:47.126Z,3.38
2023-01-18T20:47:28.884Z,4.00
2023-01-18T20:51:10.825Z,3.90
2023-01-18T20:54:52.666Z,3.75
2023-01-18T20:58:34.539Z,3.95
2023-01-18T21:02:16.447Z,4.43
2023-01-18T21:05:58.394Z,4.85
2023-01-18T21:09:40.145Z,5.97
2023-01-18T21:13:22.109Z,3.72
2023-01-18T21:17:03.875Z,3.13
2023-01-18T21:20:57.716Z,3.53
2023-01-18T21:24:39.474Z,3.58
2023-01-18T21:28:21.943Z,3.80
2023-01-18T21:32:04.230Z,4.95
2023-01-18T21:35:46.416Z,5.07
2023-01-18T21:39:28.527Z,4.78
2023-01-18T21:43:37.083Z,4.50
2023-01-18T21:47:18.818Z,3.85
2023-01-18T21:51:21.023Z,3.53
2023-01-18T21:55:02.797Z,3.38
2023-01-18T21:58:53.356Z,4.28
2023-01-18T22:02:35.911Z,4.72
2023-01-18T22:06:17.670Z,4.05
2023-01-18T22:10:04.978Z,3.50
2023-01-18T22:13:47.168Z,3.22
2023-01-18T22:17:28.928Z,2.83
2023-01-18T22:21:10.690Z,2.65
2023-01-18T22:24:52.468Z,2.47
2023-01-18T22:28:34.286Z,2.75
2023-01-18T22:32:16.380Z,2.55
2023-01-18T22:35:59.191Z,2.83
2023-01-18T22:39:40.941Z,2.78
2023-01-18T22:43:23.336Z,2.95
2023-01-18T22:47:05.260Z,3.50
2023-01-18T22:50:58.258Z,3.67
2023-01-18T22:54:40.183Z,3.20
2023-01-18T22:58:21.964Z,2.60
2023-01-18T23:02:03.757Z,3.28
2023-01-18T23:05:57.781Z,3.40
2023-01-18T23:09:39.816Z,2.70
2023-01-18T23:13:21.573Z,2.67
2023-01-18T23:17:22.258Z,2.92
2023-01-18T23:21:04.182Z,3.10
2023-01-18T23:24:46.090Z,3.55
2023-01-18T23:28:41.031Z,3.83
2023-01-18T23:32:27.327Z,3.42
2023-01-18T23:36:10.615Z,3.90
2023-01-18T23:40:11.231Z,3.63
2023-01-18T23:44:11.635Z,3.60
2023-01-18T23:48:12.081Z,3.70
2023-01-18T23:52:12.427Z,3.90
2023-01-18T23:55:54.539Z,4.00
2023-01-18T23:59:37.948Z,3.47
